Mount Nebo, WV (26679)

5:58 PM EDT on July 26, 2017 (GMT -0400)
Summersville | | Change Station

Elev 1932 ft 38.30 °N, 80.84 °W | Updated 16 seconds ago

Partly Cloudy
Partly Cloudy
93.0 °F
Feels Like 99 °F
N
2.7
Wind Variable Wind from SW

Today
High -- | Low -- °F
--% Chance of Precip.
Yesterday
High -- | Low -- °F
Precip. -- in
Pressure 30.06 in
Visibility 10.0 miles
Clouds Few 4300 ft
Few 5000 ft
Scattered Clouds 6500 ft
Heat Index 99 °F
Dew Point 70 °F
Humidity 47%
Rainfall 0.00 in
Snow Depth Not available.
6:21 AM 8:38 PM
Waxing Crescent, 15% visible
METAR KBKW 262151Z AUTO 16003KT 10SM FEW043 FEW050 SCT065 26/18 A3015 RMK AO2 SLP179 T02610183 TSNO
Pressure 30.06 in
Visibility 10.0 miles
Clouds Few 4300 ft
Few 5000 ft
Scattered Clouds 6500 ft
Heat Index 99 °F
Dew Point 70 °F
Humidity 47%
Rainfall 0.00 in
Snow Depth Not available.
6:21 AM 8:38 PM
Waxing Crescent, 15% visible
METAR KBKW 262151Z AUTO 16003KT 10SM FEW043 FEW050 SCT065 26/18 A3015 RMK AO2 SLP179 T02610183 TSNO

Get Severe Weather Alerts

Thanks for signing up!

Be on the lookout for a verification email in your inbox.

You'll start receiving the daily forecast at 6 AM.

×

10-Day Weather Forecast

Almanac

Astronomy

Jul. 26, 2017 Rise Set
Actual Time
Civil Twilight
Nautical Twilight
Astronomical Twilight
Moon
Length of Visible Light
Length of Day
Tomorrow will be .
, % of the Moon is Illuminated

Today's Extremes

State Highs State Lows

Community

WunderPhotos

Category 6

Welcome to Category 6. This is the collective home for Weather Underground's featured writeups by Dr. Jeff Masters (right), Bob Henson (left), Chris Burt, and other regular contributors.

Nearby

Air Quality

  Air Quality AQ Index Pollutant
Not available.

Snow Depth

Station Depth Elevation

Earthquake Activity

City Distance Mag. Time & Date
Minimum magnitude displayed is 2.5.

Coastal Water Temperatures

Place Temperature

Stations

Nearby Weather Stations

Station Location Temp. Windchill Dew Point Humidity Wind Precip. Elev Updated Type
                   

Watches & Warnings

There are currently no watches in effect.